Accueil
METAR-TAF:

METAR-TAF

Aéroports :

Matagami, Québec, Canada

latitude: 49-46N, longitude: 077-49W, altitude: 281 m

Observation

Le bulletin a été fait il y a 10 minutes, à 04:16 UTC
Vent 14 kt de nord-ouest avec des rafales jusqu'à 19 kt
Température 2°C
Humidité 100%
Pression 1010 hPa
Visibilité: 4.0 km
Ciel couvert à une hauteur de 300 ft
pluie faible, brume

METAR: CYNM 210416Z AUTO 32014G19KT 2 1/2SM -RA BR OVC003 02/02 A2982 RMK VIS VRB 1 1/4-3 SLP111

Heure: 00:26 (04:26 UTC)


TAF: absent

Observations et prévisions météorologiques de plus de 4000 aéroports (messages METAR et TAF).

Les stations disponibles sont représentées par des disques jaunes et rouges sur la carte.

Passer la souris dessus pour voir le nom de la station.

Cliquer dessus pour voir les observations et prévisions météorologiques.

Pour changer de carte: cliquez sur les boutons verts avec une croix noire pour zoomer, sur le bouton vert avec un tiret pour effectuer un zoom arrière, ou sur les flèches vertes pour les cartes adjacentes.


METAR-TAF: